Time,TemperatureF,DewpointF,PressureIn,WindDirection,WindDirectionDegrees,WindSpeedMPH,WindSpeedGustMPH,Humidity,HourlyPrecipIn,Conditions,Clouds,dailyrainin,SoftwareType,DateUTC
2013-02-04 00:05:00,39.1,29.1,30.02,WNW,283,2.0,5.0,67,0.00,,,0.01,Wunderground v.1.15,2013-02-04 05:05:00,
2013-02-04 00:10:00,39.2,29.2,30.03,WNW,283,0.0,5.0,67,0.00,,,0.00,Wunderground v.1.15,2013-02-04 05:10:00,
2013-02-04 00:16:00,39.0,29.3,30.03,WNW,282,5.0,5.0,68,0.00,,,0.00,Wunderground v.1.15,2013-02-04 05:16:00,
2013-02-04 00:21:00,38.5,28.9,30.02,SW,217,3.0,3.0,68,0.00,,,0.00,Wunderground v.1.15,2013-02-04 05:21:00,
2013-02-04 00:27:00,38.5,28.9,30.03,SW,227,0.0,4.0,68,0.00,,,0.00,Wunderground v.1.15,2013-02-04 05:27:00,
2013-02-04 00:32:00,38.9,28.9,30.02,West,272,2.0,4.0,67,0.00,,,0.00,Wunderground v.1.15,2013-02-04 05:32:00,
2013-02-04 00:37:00,39.1,28.7,30.02,WSW,237,4.0,4.0,66,0.00,,,0.00,Wunderground v.1.15,2013-02-04 05:37:00,
2013-02-04 00:42:00,39.2,28.8,30.02,WSW,237,0.0,2.0,66,0.00,,,0.00,Wunderground v.1.15,2013-02-04 05:42:00,
2013-02-04 00:48:00,39.3,28.9,30.02,WSW,238,0.0,2.0,66,0.00,,,0.00,Wunderground v.1.15,2013-02-04 05:48:00,
2013-02-04 00:53:00,39.1,28.7,30.02,WSW,243,1.0,2.0,66,0.00,,,0.00,Wunderground v.1.15,2013-02-04 05:53:00,
2013-02-04 00:58:00,38.9,28.5,30.02,WSW,242,1.0,2.0,66,0.00,,,0.00,Wunderground v.1.15,2013-02-04 05:58:00,
2013-02-04 01:03:00,39.0,29.0,30.02,WSW,242,0.0,1.0,67,0.00,,,0.00,Wunderground v.1.15,2013-02-04 06:03:00,
2013-02-04 01:08:00,39.0,29.0,30.03,WSW,242,0.0,1.0,67,0.00,,,0.00,Wunderground v.1.15,2013-02-04 06:08:00,
2013-02-04 01:14:00,39.0,29.0,30.02,WSW,242,0.0,1.0,67,0.00,,,0.00,Wunderground v.1.15,2013-02-04 06:14:00,
2013-02-04 01:19:00,38.9,28.9,30.02,WSW,242,1.0,2.0,67,0.00,,,0.00,Wunderground v.1.15,2013-02-04 06:19:00,
2013-02-04 01:24:00,38.6,28.9,30.02,WSW,242,0.0,3.0,68,0.00,,,0.00,Wunderground v.1.15,2013-02-04 06:24:00,
2013-02-04 01:29:00,38.5,28.9,30.02,WSW,242,0.0,3.0,68,0.00,,,0.00,Wunderground v.1.15,2013-02-04 06:29:00,
2013-02-04 01:34:00,38.4,28.8,30.03,WSW,241,1.0,3.0,68,0.00,,,0.00,Wunderground v.1.15,2013-02-04 06:34:00,
2013-02-04 01:39:00,38.4,28.8,30.03,WSW,241,0.0,3.0,68,0.00,,,0.00,Wunderground v.1.15,2013-02-04 06:39:00,
2013-02-04 01:45:00,38.2,28.9,30.02,WSW,241,3.0,3.0,69,0.00,,,0.00,Wunderground v.1.15,2013-02-04 06:45:00,
2013-02-04 01:50:00,38.2,28.6,30.03,WSW,241,0.0,3.0,68,0.00,,,0.00,Wunderground v.1.15,2013-02-04 06:50:00,
2013-02-04 01:55:00,38.3,28.7,30.02,WSW,241,0.0,2.0,68,0.00,,,0.00,Wunderground v.1.15,2013-02-04 06:55:00,
2013-02-04 02:00:00,38.1,28.5,30.03,WSW,241,1.0,3.0,68,0.00,,,0.00,Wunderground v.1.15,2013-02-04 07:00:00,
2013-02-04 02:05:00,38.1,28.5,30.02,WSW,241,0.0,3.0,68,0.00,,,0.00,Wunderground v.1.15,2013-02-04 07:05:00,
2013-02-04 02:11:00,38.0,28.7,30.02,WSW,241,0.0,0.0,69,0.00,,,0.00,Wunderground v.1.15,2013-02-04 07:11:00,
2013-02-04 02:16:00,38.0,28.7,30.03,WSW,241,1.0,4.0,69,0.00,,,0.00,Wunderground v.1.15,2013-02-04 07:16:00,
2013-02-04 02:21:00,38.0,28.7,30.02,WSW,241,3.0,3.0,69,0.00,,,0.00,Wunderground v.1.15,2013-02-04 07:21:00,
2013-02-04 02:26:00,38.0,28.7,30.03,WSW,241,0.0,3.0,69,0.00,,,0.00,Wunderground v.1.15,2013-02-04 07:26:00,
2013-02-04 02:31:00,37.9,28.6,30.03,WSW,241,0.0,0.0,69,0.00,,,0.00,Wunderground v.1.15,2013-02-04 07:31:00,
2013-02-04 02:36:00,37.9,28.6,30.03,WSW,242,0.0,3.0,69,0.00,,,0.00,Wunderground v.1.15,2013-02-04 07:36:00,
2013-02-04 02:41:00,37.8,28.5,30.03,WSW,242,0.0,0.0,69,0.00,,,0.00,Wunderground v.1.15,2013-02-04 07:41:00,
2013-02-04 02:46:00,37.7,28.4,30.03,WSW,241,0.0,3.0,69,0.00,,,0.00,Wunderground v.1.15,2013-02-04 07:46:00,
2013-02-04 02:51:00,37.5,28.2,30.03,WSW,241,0.0,0.0,69,0.00,,,0.00,Wunderground v.1.15,2013-02-04 07:51:00,
2013-02-04 02:56:00,37.4,28.5,30.03,WSW,241,0.0,0.0,70,0.00,,,0.00,Wunderground v.1.15,2013-02-04 07:56:00,
2013-02-04 03:02:00,37.0,28.1,30.03,WSW,241,0.0,0.0,70,0.00,,,0.00,Wunderground v.1.15,2013-02-04 08:02:00,
2013-02-04 03:07:00,36.8,28.3,30.03,WSW,241,0.0,0.0,71,0.00,,,0.00,Wunderground v.1.15,2013-02-04 08:07:00,
2013-02-04 03:12:00,36.5,28.0,30.03,WSW,241,0.0,0.0,71,0.00,,,0.00,Wunderground v.1.15,2013-02-04 08:12:00,
2013-02-04 03:17:00,36.2,28.0,30.03,WSW,241,0.0,0.0,72,0.00,,,0.00,Wunderground v.1.15,2013-02-04 08:17:00,
2013-02-04 03:22:00,35.7,27.9,30.03,WSW,241,0.0,0.0,73,0.00,,,0.00,Wunderground v.1.15,2013-02-04 08:22:00,
2013-02-04 03:27:00,35.4,27.9,30.03,WSW,241,0.0,0.0,74,0.00,,,0.00,Wunderground v.1.15,2013-02-04 08:27:00,
2013-02-04 03:32:00,34.9,27.8,30.03,WSW,241,0.0,0.0,75,0.00,,,0.00,Wunderground v.1.15,2013-02-04 08:32:00,
2013-02-04 03:37:00,34.3,27.8,30.03,WSW,241,0.0,0.0,77,0.00,,,0.00,Wunderground v.1.15,2013-02-04 08:37:00,
2013-02-04 03:42:00,34.0,27.5,30.03,WSW,241,0.0,0.0,77,0.00,,,0.00,Wunderground v.1.15,2013-02-04 08:42:00,
2013-02-04 03:47:00,34.0,27.5,30.02,WSW,241,0.0,0.0,77,0.00,,,0.00,Wunderground v.1.15,2013-02-04 08:47:00,
2013-02-04 03:52:00,33.9,27.8,30.03,WSW,241,0.0,0.0,78,0.00,,,0.00,Wunderground v.1.15,2013-02-04 08:52:00,
2013-02-04 03:57:00,33.6,27.5,30.03,WSW,241,0.0,0.0,78,0.00,,,0.00,Wunderground v.1.15,2013-02-04 08:57:00,
2013-02-04 04:02:00,33.3,27.5,30.02,WSW,241,0.0,0.0,79,0.00,,,0.00,Wunderground v.1.15,2013-02-04 09:02:00,
2013-02-04 04:07:00,33.0,27.2,30.03,WSW,241,0.0,0.0,79,0.00,,,0.00,Wunderground v.1.15,2013-02-04 09:07:00,
2013-02-04 04:13:00,32.9,27.4,30.03,WSW,241,0.0,0.0,80,0.00,,,0.00,Wunderground v.1.15,2013-02-04 09:13:00,
2013-02-04 04:18:00,33.2,27.4,30.03,WSW,241,0.0,0.0,79,0.00,,,0.00,Wunderground v.1.15,2013-02-04 09:18:00,
2013-02-04 04:23:00,33.2,27.4,30.02,WSW,241,0.0,0.0,79,0.00,,,0.00,Wunderground v.1.15,2013-02-04 09:23:00,
2013-02-04 04:28:00,33.1,27.3,30.02,WSW,241,0.0,0.0,79,0.00,,,0.00,Wunderground v.1.15,2013-02-04 09:28:00,
2013-02-04 04:33:00,33.3,27.5,30.03,WSW,241,0.0,0.0,79,0.00,,,0.00,Wunderground v.1.15,2013-02-04 09:33:00,
2013-02-04 04:38:00,33.2,27.4,30.03,WSW,241,0.0,0.0,79,0.00,,,0.00,Wunderground v.1.15,2013-02-04 09:38:00,
2013-02-04 04:43:00,32.7,26.9,30.03,WSW,241,0.0,0.0,79,0.00,,,0.00,Wunderground v.1.15,2013-02-04 09:43:00,
2013-02-04 04:48:00,32.1,26.3,30.03,WSW,241,0.0,0.0,79,0.00,,,0.00,Wunderground v.1.15,2013-02-04 09:48:00,
2013-02-04 04:53:00,31.7,26.5,30.04,WSW,241,0.0,0.0,81,0.00,,,0.00,Wunderground v.1.15,2013-02-04 09:53:00,
2013-02-04 04:58:00,31.3,26.1,30.04,WSW,241,0.0,0.0,81,0.00,,,0.00,Wunderground v.1.15,2013-02-04 09:58:00,
2013-02-04 05:03:00,31.1,26.2,30.05,WSW,241,0.0,0.0,82,0.00,,,0.00,Wunderground v.1.15,2013-02-04 10:03:00,
2013-02-04 05:08:00,30.7,26.1,30.04,WSW,241,0.0,0.0,83,0.00,,,0.00,Wunderground v.1.15,2013-02-04 10:08:00,
2013-02-04 05:13:00,30.5,26.0,30.04,WSW,241,0.0,0.0,83,0.00,,,0.00,Wunderground v.1.15,2013-02-04 10:13:00,
2013-02-04 05:18:00,30.4,26.1,30.04,WSW,241,0.0,0.0,84,0.00,,,0.00,Wunderground v.1.15,2013-02-04 10:18:00,
2013-02-04 05:23:00,30.5,26.2,30.04,WSW,241,0.0,0.0,84,0.00,,,0.00,Wunderground v.1.15,2013-02-04 10:23:00,
2013-02-04 05:28:00,30.6,26.3,30.04,WSW,241,0.0,0.0,84,0.00,,,0.00,Wunderground v.1.15,2013-02-04 10:28:00,
2013-02-04 05:34:00,30.6,26.3,30.04,WSW,241,0.0,0.0,84,0.00,,,0.00,Wunderground v.1.15,2013-02-04 10:34:00,
2013-02-04 05:39:00,30.4,26.1,30.04,WSW,241,0.0,0.0,84,0.00,,,0.00,Wunderground v.1.15,2013-02-04 10:39:00,
2013-02-04 05:44:00,30.4,26.1,30.04,WSW,241,0.0,0.0,84,0.00,,,0.00,Wunderground v.1.15,2013-02-04 10:44:00,
2013-02-04 05:49:00,30.4,26.1,30.05,WSW,241,0.0,0.0,84,0.00,,,0.00,Wunderground v.1.15,2013-02-04 10:49:00,
2013-02-04 05:54:00,30.3,26.0,30.05,WSW,241,0.0,0.0,84,0.00,,,0.00,Wunderground v.1.15,2013-02-04 10:54:00,
2013-02-04 05:59:00,30.2,25.9,30.05,WSW,241,0.0,0.0,84,0.00,,,0.00,Wunderground v.1.15,2013-02-04 10:59:00,
2013-02-04 06:04:00,30.2,26.2,30.05,WSW,241,0.0,0.0,85,0.00,,,0.00,Wunderground v.1.15,2013-02-04 11:04:00,
2013-02-04 06:09:00,30.1,26.4,30.06,WSW,241,0.0,0.0,86,0.00,,,0.00,Wunderground v.1.15,2013-02-04 11:09:00,
2013-02-04 06:14:00,30.0,26.0,30.06,WSW,241,0.0,0.0,85,0.00,,,0.00,Wunderground v.1.15,2013-02-04 11:14:00,
2013-02-04 06:19:00,29.8,25.8,30.06,WSW,241,0.0,0.0,85,0.00,,,0.00,Wunderground v.1.15,2013-02-04 11:19:00,
2013-02-04 06:24:00,29.6,25.9,30.06,WSW,241,0.0,0.0,86,0.00,,,0.00,Wunderground v.1.15,2013-02-04 11:24:00,
2013-02-04 06:29:00,29.6,25.9,30.06,WSW,241,0.0,0.0,86,0.00,,,0.00,Wunderground v.1.15,2013-02-04 11:29:00,
2013-02-04 06:34:00,29.6,26.2,30.06,WSW,241,0.0,0.0,87,0.00,,,0.00,Wunderground v.1.15,2013-02-04 11:34:00,
2013-02-04 06:39:00,29.7,26.3,30.06,WSW,241,0.0,0.0,87,0.00,,,0.00,Wunderground v.1.15,2013-02-04 11:39:00,
2013-02-04 06:44:00,29.9,26.5,30.07,WSW,241,0.0,0.0,87,0.00,,,0.00,Wunderground v.1.15,2013-02-04 11:44:00,
2013-02-04 06:49:00,30.0,26.6,30.07,WSW,241,0.0,0.0,87,0.00,,,0.00,Wunderground v.1.15,2013-02-04 11:49:00,
2013-02-04 06:54:00,29.9,26.2,30.06,WSW,241,0.0,0.0,86,0.00,,,0.00,Wunderground v.1.15,2013-02-04 11:54:00,
2013-02-04 06:59:00,29.9,26.5,30.07,WSW,241,0.0,0.0,87,0.00,,,0.00,Wunderground v.1.15,2013-02-04 11:59:00,
2013-02-04 07:04:00,30.1,26.7,30.06,WSW,241,0.0,0.0,87,0.00,,,0.00,Wunderground v.1.15,2013-02-04 12:04:00,
2013-02-04 07:09:00,30.2,26.5,30.07,WSW,241,0.0,0.0,86,0.00,,,0.00,Wunderground v.1.15,2013-02-04 12:09:00,
2013-02-04 07:14:00,30.5,26.8,30.07,WSW,241,0.0,0.0,86,0.00,,,0.00,Wunderground v.1.15,2013-02-04 12:14:00,
2013-02-04 07:19:00,30.8,27.1,30.07,WSW,241,0.0,0.0,86,0.00,,,0.00,Wunderground v.1.15,2013-02-04 12:19:00,
2013-02-04 07:24:00,31.1,27.1,30.07,WSW,241,0.0,0.0,85,0.00,,,0.00,Wunderground v.1.15,2013-02-04 12:24:00,
2013-02-04 07:29:00,31.5,27.2,30.08,WSW,241,0.0,0.0,84,0.00,,,0.00,Wunderground v.1.15,2013-02-04 12:29:00,
2013-02-04 07:34:00,31.8,27.5,30.08,WSW,241,0.0,0.0,84,0.00,,,0.00,Wunderground v.1.15,2013-02-04 12:34:00,
2013-02-04 07:39:00,32.2,27.9,30.08,WSW,241,0.0,0.0,84,0.00,,,0.00,Wunderground v.1.15,2013-02-04 12:39:00,
2013-02-04 07:44:00,32.5,28.2,30.09,WSW,241,0.0,0.0,84,0.00,,,0.00,Wunderground v.1.15,2013-02-04 12:44:00,
2013-02-04 07:49:00,32.7,28.4,30.09,WSW,241,0.0,0.0,84,0.00,,,0.00,Wunderground v.1.15,2013-02-04 12:49:00,
2013-02-04 07:54:00,32.8,28.5,30.09,WSW,241,0.0,0.0,84,0.00,,,0.00,Wunderground v.1.15,2013-02-04 12:54:00,
2013-02-04 08:00:00,32.8,28.8,30.09,WSW,241,0.0,0.0,85,0.00,,,0.00,Wunderground v.1.15,2013-02-04 13:00:00,
2013-02-04 08:05:00,32.7,28.4,30.09,WSW,241,0.0,0.0,84,0.00,,,0.00,Wunderground v.1.15,2013-02-04 13:05:00,
2013-02-04 08:10:00,32.6,28.3,30.09,WSW,241,0.0,0.0,84,0.00,,,0.00,Wunderground v.1.15,2013-02-04 13:10:00,
2013-02-04 08:15:00,32.7,28.1,30.09,WSW,241,0.0,0.0,83,0.00,,,0.00,Wunderground v.1.15,2013-02-04 13:15:00,
2013-02-04 08:20:00,32.8,28.2,30.09,WSW,241,0.0,0.0,83,0.00,,,0.00,Wunderground v.1.15,2013-02-04 13:20:00,
2013-02-04 08:25:00,33.0,28.4,30.09,WSW,241,0.0,0.0,83,0.00,,,0.00,Wunderground v.1.15,2013-02-04 13:25:00,
2013-02-04 08:30:00,33.4,29.1,30.09,WSW,241,0.0,0.0,84,0.00,,,0.00,Wunderground v.1.15,2013-02-04 13:30:00,
2013-02-04 08:35:00,33.6,29.0,30.10,WSW,241,0.0,0.0,83,0.00,,,0.00,Wunderground v.1.15,2013-02-04 13:35:00,
2013-02-04 08:40:00,34.1,29.5,30.10,WSW,241,0.0,0.0,83,0.00,,,0.00,Wunderground v.1.15,2013-02-04 13:40:00,
2013-02-04 08:45:00,34.6,30.0,30.11,WSW,241,0.0,0.0,83,0.00,,,0.00,Wunderground v.1.15,2013-02-04 13:45:00,
2013-02-04 08:50:00,34.8,29.3,30.11,WSW,241,0.0,0.0,80,0.00,,,0.00,Wunderground v.1.15,2013-02-04 13:50:00,
2013-02-04 08:55:00,35.1,29.6,30.11,WSW,241,0.0,0.0,80,0.00,,,0.00,Wunderground v.1.15,2013-02-04 13:55:00,
2013-02-04 09:00:00,35.2,29.0,30.11,WSW,241,0.0,0.0,78,0.00,,,0.00,Wunderground v.1.15,2013-02-04 14:00:00,
2013-02-04 09:05:00,35.4,29.2,30.11,WSW,241,0.0,0.0,78,0.00,,,0.00,Wunderground v.1.15,2013-02-04 14:05:00,
2013-02-04 09:10:00,35.7,29.8,30.10,WSW,241,0.0,0.0,79,0.00,,,0.00,Wunderground v.1.15,2013-02-04 14:10:00,
2013-02-04 09:15:00,36.2,30.3,30.10,WSW,241,0.0,0.0,79,0.00,,,0.00,Wunderground v.1.15,2013-02-04 14:15:00,
2013-02-04 09:20:00,36.6,30.7,30.10,WSW,241,0.0,0.0,79,0.00,,,0.00,Wunderground v.1.15,2013-02-04 14:20:00,
2013-02-04 09:25:00,37.1,30.9,30.10,WSW,241,0.0,0.0,78,0.00,,,0.00,Wunderground v.1.15,2013-02-04 14:25:00,
2013-02-04 09:30:00,37.6,31.4,30.10,WSW,241,0.0,0.0,78,0.00,,,0.00,Wunderground v.1.15,2013-02-04 14:30:00,
2013-02-04 09:35:00,38.2,31.3,30.11,WSW,241,0.0,0.0,76,0.00,,,0.00,Wunderground v.1.15,2013-02-04 14:35:00,
2013-02-04 09:40:00,38.9,29.9,30.11,WSW,241,0.0,3.0,70,0.00,,,0.00,Wunderground v.1.15,2013-02-04 14:40:00,
2013-02-04 09:45:00,39.5,29.4,30.10,WSW,241,0.0,3.0,67,0.00,,,0.00,Wunderground v.1.15,2013-02-04 14:45:00,
2013-02-04 09:51:00,39.9,29.8,30.10,WSW,241,0.0,3.0,67,0.00,,,0.00,Wunderground v.1.15,2013-02-04 14:51:00,
2013-02-04 09:56:00,40.2,29.4,30.10,WSW,241,0.0,4.0,65,0.00,,,0.00,Wunderground v.1.15,2013-02-04 14:56:00,
2013-02-04 10:01:00,40.4,29.6,30.11,WSW,241,0.0,1.0,65,0.00,,,0.00,Wunderground v.1.15,2013-02-04 15:01:00,
2013-02-04 10:06:00,40.5,30.0,30.11,WSW,241,2.0,3.0,66,0.00,,,0.00,Wunderground v.1.15,2013-02-04 15:06:00,
2013-02-04 10:11:00,40.7,30.2,30.11,WSW,241,0.0,1.0,66,0.00,,,0.00,Wunderground v.1.15,2013-02-04 15:11:00,
2013-02-04 10:16:00,41.1,30.6,30.12,WSW,241,0.0,1.0,66,0.00,,,0.00,Wunderground v.1.15,2013-02-04 15:16:00,
2013-02-04 10:21:00,41.5,29.8,30.12,WSW,241,0.0,0.0,63,0.00,,,0.00,Wunderground v.1.15,2013-02-04 15:21:00,
2013-02-04 10:26:00,41.8,29.7,30.12,WSW,241,4.0,4.0,62,0.00,,,0.00,Wunderground v.1.15,2013-02-04 15:26:00,
2013-02-04 10:31:00,42.1,30.0,30.12,WSW,241,0.0,1.0,62,0.00,,,0.00,Wunderground v.1.15,2013-02-04 15:31:00,
2013-02-04 10:36:00,42.1,30.0,30.12,WSW,241,2.0,3.0,62,0.00,,,0.00,Wunderground v.1.15,2013-02-04 15:36:00,
2013-02-04 10:41:00,42.1,30.4,30.12,WSW,241,0.0,1.0,63,0.00,,,0.00,Wunderground v.1.15,2013-02-04 15:41:00,
2013-02-04 10:46:00,42.5,30.4,30.12,WSW,241,0.0,1.0,62,0.00,,,0.00,Wunderground v.1.15,2013-02-04 15:46:00,
2013-02-04 10:51:00,42.9,30.0,30.12,WSW,241,0.0,0.0,60,0.00,,,0.00,Wunderground v.1.15,2013-02-04 15:51:00,
2013-02-04 10:56:00,43.1,30.6,30.12,WSW,241,1.0,4.0,61,0.00,,,0.00,Wunderground v.1.15,2013-02-04 15:56:00,
2013-02-04 11:01:00,43.6,30.6,30.12,WSW,241,0.0,2.0,60,0.00,,,0.00,Wunderground v.1.15,2013-02-04 16:01:00,
2013-02-04 11:06:00,43.7,30.3,30.13,WSW,241,0.0,4.0,59,0.00,,,0.00,Wunderground v.1.15,2013-02-04 16:06:00,
2013-02-04 11:11:00,44.1,31.1,30.13,WSW,241,0.0,1.0,60,0.00,,,0.00,Wunderground v.1.15,2013-02-04 16:11:00,
2013-02-04 11:16:00,44.4,30.1,30.13,WSW,241,0.0,1.0,57,0.00,,,0.00,Wunderground v.1.15,2013-02-04 16:16:00,
2013-02-04 11:21:00,44.7,30.0,30.13,WSW,241,0.0,0.0,56,0.00,,,0.00,Wunderground v.1.15,2013-02-04 16:21:00,
2013-02-04 11:26:00,44.9,30.1,30.12,WSW,241,0.0,0.0,56,0.00,,,0.00,Wunderground v.1.15,2013-02-04 16:26:00,
2013-02-04 11:31:00,45.2,30.9,30.11,WSW,241,0.0,0.0,57,0.00,,,0.00,Wunderground v.1.15,2013-02-04 16:31:00,
2013-02-04 11:36:00,45.6,31.2,30.11,WSW,241,0.0,0.0,57,0.00,,,0.00,Wunderground v.1.15,2013-02-04 16:36:00,
2013-02-04 11:41:00,45.7,30.0,30.10,WSW,241,0.0,2.0,54,0.00,,,0.00,Wunderground v.1.15,2013-02-04 16:41:00,
2013-02-04 11:46:00,46.0,30.3,30.10,WSW,241,0.0,2.0,54,0.00,,,0.00,Wunderground v.1.15,2013-02-04 16:46:00,
2013-02-04 11:51:00,46.4,30.6,30.10,SE,135,0.0,1.0,54,0.00,,,0.00,Wunderground v.1.15,2013-02-04 16:51:00,
2013-02-04 11:56:00,46.8,30.6,30.10,SSE,167,0.0,6.0,53,0.00,,,0.00,Wunderground v.1.15,2013-02-04 16:56:00,
2013-02-04 12:01:00,47.1,30.4,30.10,SSE,167,0.0,1.0,52,0.00,,,0.00,Wunderground v.1.15,2013-02-04 17:01:00,
2013-02-04 12:06:00,47.1,30.4,30.10,SSE,167,0.0,1.0,52,0.00,,,0.00,Wunderground v.1.15,2013-02-04 17:06:00,
2013-02-04 12:11:00,47.2,30.0,30.10,South,173,4.0,4.0,51,0.00,,,0.00,Wunderground v.1.15,2013-02-04 17:11:00,
2013-02-04 12:17:00,47.2,30.0,30.10,South,173,0.0,4.0,51,0.00,,,0.00,Wunderground v.1.15,2013-02-04 17:17:00,
2013-02-04 12:22:00,47.3,29.6,30.10,South,173,4.0,4.0,50,0.00,,,0.00,Wunderground v.1.15,2013-02-04 17:22:00,
2013-02-04 12:27:00,47.3,30.5,30.09,South,173,0.0,4.0,52,0.00,,,0.00,Wunderground v.1.15,2013-02-04 17:27:00,
2013-02-04 12:32:00,47.4,30.2,30.08,South,172,0.0,0.0,51,0.00,,,0.00,Wunderground v.1.15,2013-02-04 17:32:00,
2013-02-04 12:37:00,47.2,30.0,30.08,ENE,74,0.0,0.0,51,0.00,,,0.00,Wunderground v.1.15,2013-02-04 17:37:00,
2013-02-04 12:42:00,47.2,29.5,30.08,ENE,75,0.0,0.0,50,0.00,,,0.00,Wunderground v.1.15,2013-02-04 17:42:00,
2013-02-04 12:47:00,47.1,28.9,30.08,ENE,75,0.0,0.0,49,0.00,,,0.00,Wunderground v.1.15,2013-02-04 17:47:00,
2013-02-04 12:52:00,47.1,29.4,30.08,South,173,0.0,2.0,50,0.00,,,0.00,Wunderground v.1.15,2013-02-04 17:52:00,
2013-02-04 12:57:00,47.2,29.0,30.08,South,173,4.0,4.0,49,0.00,,,0.00,Wunderground v.1.15,2013-02-04 17:57:00,
2013-02-04 13:02:00,47.2,29.5,30.08,South,173,0.0,1.0,50,0.00,,,0.00,Wunderground v.1.15,2013-02-04 18:02:00,
2013-02-04 13:07:00,47.4,29.7,30.09,South,173,0.0,1.0,50,0.00,,,0.00,Wunderground v.1.15,2013-02-04 18:07:00,
2013-02-04 13:12:00,47.6,29.9,30.08,South,173,0.0,0.0,50,0.00,,,0.00,Wunderground v.1.15,2013-02-04 18:12:00,
2013-02-04 13:17:00,47.8,29.5,30.08,South,173,0.0,0.0,49,0.00,,,0.00,Wunderground v.1.15,2013-02-04 18:17:00,
2013-02-04 13:22:00,48.1,29.8,30.07,South,173,0.0,0.0,49,0.00,,,0.00,Wunderground v.1.15,2013-02-04 18:22:00,
2013-02-04 13:27:00,48.3,30.0,30.08,South,173,0.0,0.0,49,0.00,,,0.00,Wunderground v.1.15,2013-02-04 18:27:00,
2013-02-04 13:32:00,48.6,30.3,30.06,South,173,0.0,0.0,49,0.00,,,0.00,Wunderground v.1.15,2013-02-04 18:32:00,
2013-02-04 13:37:00,49.0,30.1,30.06,South,173,0.0,0.0,48,0.00,,,0.00,Wunderground v.1.15,2013-02-04 18:37:00,
2013-02-04 13:42:00,49.0,29.6,30.06,South,173,0.0,0.0,47,0.00,,,0.00,Wunderground v.1.15,2013-02-04 18:42:00,
2013-02-04 13:47:00,49.0,29.6,30.06,South,173,0.0,0.0,47,0.00,,,0.00,Wunderground v.1.15,2013-02-04 18:47:00,
2013-02-04 13:52:00,49.1,29.7,30.06,South,173,0.0,0.0,47,0.00,,,0.00,Wunderground v.1.15,2013-02-04 18:52:00,
2013-02-04 13:57:00,49.2,29.8,30.07,SW,234,3.0,5.0,47,0.00,,,0.00,Wunderground v.1.15,2013-02-04 18:57:00,
2013-02-04 14:02:00,49.2,29.3,30.07,SW,232,5.0,5.0,46,0.00,,,0.00,Wunderground v.1.15,2013-02-04 19:02:00,
2013-02-04 14:07:00,49.2,28.7,30.07,SW,232,0.0,5.0,45,0.00,,,0.00,Wunderground v.1.15,2013-02-04 19:07:00,
2013-02-04 14:12:00,49.2,28.2,30.07,SW,232,0.0,2.0,44,0.00,,,0.00,Wunderground v.1.15,2013-02-04 19:12:00,
2013-02-04 14:17:00,49.4,28.4,30.06,SW,232,4.0,4.0,44,0.00,,,0.00,Wunderground v.1.15,2013-02-04 19:17:00,
2013-02-04 14:22:00,49.6,28.6,30.06,South,174,1.0,2.0,44,0.00,,,0.00,Wunderground v.1.15,2013-02-04 19:22:00,
2013-02-04 14:27:00,49.7,28.1,30.05,South,174,0.0,2.0,43,0.00,,,0.00,Wunderground v.1.15,2013-02-04 19:27:00,
2013-02-04 14:32:00,49.8,28.7,30.06,South,184,3.0,5.0,44,0.00,,,0.00,Wunderground v.1.15,2013-02-04 19:32:00,
2013-02-04 14:37:00,50.0,28.9,30.05,SW,216,2.0,5.0,44,0.00,,,0.00,Wunderground v.1.15,2013-02-04 19:37:00,
2013-02-04 14:42:00,49.9,28.8,30.05,SSW,209,4.0,4.0,44,0.00,,,0.00,Wunderground v.1.15,2013-02-04 19:42:00,
2013-02-04 14:47:00,50.0,30.0,30.04,SSW,196,7.0,7.0,46,0.00,,,0.00,Wunderground v.1.15,2013-02-04 19:47:00,
2013-02-04 14:52:00,50.2,29.7,30.04,SSW,205,4.0,5.0,45,0.00,,,0.00,Wunderground v.1.15,2013-02-04 19:52:00,
2013-02-04 14:57:00,50.4,28.7,30.04,SSE,167,6.0,10.0,43,0.00,,,0.00,Wunderground v.1.15,2013-02-04 19:57:00,
2013-02-04 15:03:00,50.5,28.8,30.03,SSW,213,6.0,8.0,43,0.00,,,0.00,Wunderground v.1.15,2013-02-04 20:03:00,
2013-02-04 15:08:00,50.4,28.7,30.03,SSE,150,1.0,9.0,43,0.00,,,0.00,Wunderground v.1.15,2013-02-04 20:08:00,
2013-02-04 15:13:00,50.5,28.2,30.03,South,174,0.0,6.0,42,0.00,,,0.00,Wunderground v.1.15,2013-02-04 20:13:00,
2013-02-04 15:18:00,50.6,28.3,30.03,SW,227,4.0,6.0,42,0.00,,,0.00,Wunderground v.1.15,2013-02-04 20:18:00,
2013-02-04 15:23:00,50.5,27.7,30.03,SW,229,4.0,6.0,41,0.00,,,0.00,Wunderground v.1.15,2013-02-04 20:23:00,
2013-02-04 15:28:00,50.4,27.6,30.04,SW,229,2.0,6.0,41,0.00,,,0.00,Wunderground v.1.15,2013-02-04 20:28:00,
2013-02-04 15:33:00,50.3,28.6,30.04,SW,229,3.0,3.0,43,0.00,,,0.00,Wunderground v.1.15,2013-02-04 20:33:00,
2013-02-04 15:38:00,50.3,28.1,30.04,SW,230,6.0,6.0,42,0.00,,,0.00,Wunderground v.1.15,2013-02-04 20:38:00,
2013-02-04 15:43:00,50.3,27.5,30.04,WSW,240,4.0,7.0,41,0.00,,,0.00,Wunderground v.1.15,2013-02-04 20:43:00,
2013-02-04 15:48:00,50.3,28.6,30.04,WSW,238,2.0,7.0,43,0.00,,,0.00,Wunderground v.1.15,2013-02-04 20:48:00,
2013-02-04 15:53:00,50.3,28.6,30.04,SW,236,3.0,6.0,43,0.00,,,0.00,Wunderground v.1.15,2013-02-04 20:53:00,
2013-02-04 15:58:00,50.3,28.6,30.03,SW,236,3.0,6.0,43,0.00,,,0.00,Wunderground v.1.15,2013-02-04 20:58:00,
2013-02-04 16:03:00,50.3,28.6,30.02,SW,233,6.0,6.0,43,0.00,,,0.00,Wunderground v.1.15,2013-02-04 21:03:00,
2013-02-04 16:08:00,50.3,28.6,30.03,SSW,211,6.0,8.0,43,0.00,,,0.00,Wunderground v.1.15,2013-02-04 21:08:00,
2013-02-04 16:13:00,50.3,28.6,30.03,SSW,208,4.0,6.0,43,0.00,,,0.00,Wunderground v.1.15,2013-02-04 21:13:00,
2013-02-04 16:18:00,50.3,29.2,30.03,SSW,211,3.0,7.0,44,0.00,,,0.00,Wunderground v.1.15,2013-02-04 21:18:00,
2013-02-04 16:23:00,50.3,29.2,30.03,SSW,211,4.0,6.0,44,0.00,,,0.00,Wunderground v.1.15,2013-02-04 21:23:00,
2013-02-04 16:28:00,50.3,29.7,30.03,SSW,211,3.0,6.0,45,0.00,,,0.00,Wunderground v.1.15,2013-02-04 21:28:00,
2013-02-04 16:33:00,50.1,29.6,30.03,WSW,240,4.0,4.0,45,0.00,,,0.00,Wunderground v.1.15,2013-02-04 21:33:00,
2013-02-04 16:38:00,50.2,29.7,30.02,WSW,240,4.0,5.0,45,0.00,,,0.00,Wunderground v.1.15,2013-02-04 21:38:00,
2013-02-04 16:43:00,50.2,29.1,30.02,SW,225,4.0,5.0,44,0.00,,,0.00,Wunderground v.1.15,2013-02-04 21:43:00,
2013-02-04 16:48:00,50.2,29.7,30.03,SW,223,2.0,5.0,45,0.00,,,0.00,Wunderground v.1.15,2013-02-04 21:48:00,
2013-02-04 16:53:00,50.1,29.6,30.03,SW,223,3.0,4.0,45,0.00,,,0.00,Wunderground v.1.15,2013-02-04 21:53:00,
2013-02-04 16:58:00,50.2,30.2,30.03,SW,223,0.0,4.0,46,0.00,,,0.00,Wunderground v.1.15,2013-02-04 21:58:00,
2013-02-04 17:03:00,50.1,30.6,30.02,SW,223,0.0,2.0,47,0.00,,,0.00,Wunderground v.1.15,2013-02-04 22:03:00,
2013-02-04 17:08:00,50.1,29.6,30.02,SW,222,5.0,5.0,45,0.00,,,0.00,Wunderground v.1.15,2013-02-04 22:08:00,
2013-02-04 17:13:00,50.0,30.0,30.02,SW,222,0.0,3.0,46,0.00,,,0.00,Wunderground v.1.15,2013-02-04 22:13:00,
2013-02-04 17:18:00,49.9,29.9,30.02,SW,222,0.0,3.0,46,0.00,,,0.00,Wunderground v.1.15,2013-02-04 22:18:00,
2013-02-04 17:23:00,49.9,31.5,30.02,SW,222,0.0,1.0,49,0.00,,,0.00,Wunderground v.1.15,2013-02-04 22:23:00,
2013-02-04 17:28:00,49.7,31.3,30.02,SW,222,0.0,1.0,49,0.00,,,0.00,Wunderground v.1.15,2013-02-04 22:28:00,
2013-02-04 17:33:00,49.5,31.6,30.02,SW,222,0.0,0.0,50,0.00,,,0.00,Wunderground v.1.15,2013-02-04 22:33:00,
2013-02-04 17:38:00,49.4,31.5,30.02,SW,222,0.0,0.0,50,0.00,,,0.00,Wunderground v.1.15,2013-02-04 22:38:00,
2013-02-04 17:43:00,49.3,31.9,30.02,SW,222,0.0,0.0,51,0.00,,,0.00,Wunderground v.1.15,2013-02-04 22:43:00,
2013-02-04 17:49:00,49.2,31.3,30.02,SW,222,0.0,0.0,50,0.00,,,0.00,Wunderground v.1.15,2013-02-04 22:49:00,
2013-02-04 17:54:00,49.0,31.2,30.02,SW,222,0.0,0.0,50,0.00,,,0.00,Wunderground v.1.15,2013-02-04 22:54:00,
2013-02-04 17:59:00,48.9,31.5,30.01,SW,222,0.0,0.0,51,0.00,,,0.00,Wunderground v.1.15,2013-02-04 22:59:00,
2013-02-04 18:04:00,48.7,32.3,30.01,SW,222,0.0,0.0,53,0.00,,,0.00,Wunderground v.1.15,2013-02-04 23:04:00,
2013-02-04 18:09:00,48.5,32.1,30.02,SW,222,0.0,0.0,53,0.00,,,0.00,Wunderground v.1.15,2013-02-04 23:09:00,
2013-02-04 18:14:00,48.2,32.3,30.01,SW,222,0.0,0.0,54,0.00,,,0.00,Wunderground v.1.15,2013-02-04 23:14:00,
2013-02-04 18:19:00,47.8,31.0,30.02,SW,222,0.0,0.0,52,0.00,,,0.00,Wunderground v.1.15,2013-02-04 23:19:00,
2013-02-04 18:24:00,47.6,32.7,30.01,SW,222,0.0,0.0,56,0.00,,,0.00,Wunderground v.1.15,2013-02-04 23:24:00,
2013-02-04 18:29:00,47.3,32.8,30.01,SW,222,0.0,0.0,57,0.00,,,0.00,Wunderground v.1.15,2013-02-04 23:29:00,
2013-02-04 18:34:00,46.9,33.7,30.02,SW,222,0.0,0.0,60,0.00,,,0.00,Wunderground v.1.15,2013-02-04 23:34:00,
2013-02-04 18:39:00,46.5,33.8,30.02,SW,222,0.0,0.0,61,0.00,,,0.00,Wunderground v.1.15,2013-02-04 23:39:00,
2013-02-04 18:44:00,46.1,33.4,30.02,SW,222,0.0,0.0,61,0.00,,,0.00,Wunderground v.1.15,2013-02-04 23:44:00,
2013-02-04 18:49:00,45.7,34.2,30.02,SW,222,0.0,0.0,64,0.00,,,0.00,Wunderground v.1.15,2013-02-04 23:49:00,
2013-02-04 18:54:00,45.2,33.3,30.03,SW,222,0.0,0.0,63,0.00,,,0.00,Wunderground v.1.15,2013-02-04 23:54:00,
2013-02-04 18:59:00,44.9,33.8,30.02,SW,222,0.0,0.0,65,0.00,,,0.00,Wunderground v.1.15,2013-02-04 23:59:00,
2013-02-04 19:04:00,44.6,33.9,30.03,SW,222,0.0,0.0,66,0.00,,,0.00,Wunderground v.1.15,2013-02-05 00:04:00,
2013-02-04 19:09:00,44.2,34.3,30.03,SW,222,0.0,0.0,68,0.00,,,0.00,Wunderground v.1.15,2013-02-05 00:09:00,
2013-02-04 19:14:00,43.9,34.0,30.03,SW,222,0.0,0.0,68,0.00,,,0.00,Wunderground v.1.15,2013-02-05 00:14:00,
2013-02-04 19:19:00,43.7,33.1,30.03,SW,222,0.0,0.0,66,0.00,,,0.00,Wunderground v.1.15,2013-02-05 00:19:00,
2013-02-04 19:24:00,43.8,32.4,30.04,SW,222,0.0,0.0,64,0.00,,,0.00,Wunderground v.1.15,2013-02-05 00:24:00,
2013-02-04 19:29:00,44.0,33.4,30.04,SW,222,0.0,0.0,66,0.00,,,0.00,Wunderground v.1.15,2013-02-05 00:29:00,
2013-02-04 19:34:00,44.0,33.7,30.04,SW,222,0.0,0.0,67,0.00,,,0.00,Wunderground v.1.15,2013-02-05 00:34:00,
2013-02-04 19:39:00,43.8,33.9,30.04,SW,222,0.0,0.0,68,0.00,,,0.00,Wunderground v.1.15,2013-02-05 00:39:00,
2013-02-04 19:44:00,43.7,33.5,30.04,SW,222,0.0,0.0,67,0.00,,,0.00,Wunderground v.1.15,2013-02-05 00:44:00,
2013-02-04 19:49:00,43.8,34.3,30.04,SW,222,0.0,0.0,69,0.00,,,0.00,Wunderground v.1.15,2013-02-05 00:49:00,
2013-02-04 19:54:00,43.7,34.2,30.03,SW,222,0.0,0.0,69,0.00,,,0.00,Wunderground v.1.15,2013-02-05 00:54:00,
2013-02-04 19:59:00,43.7,34.2,30.04,SW,222,0.0,0.0,69,0.00,,,0.00,Wunderground v.1.15,2013-02-05 00:59:00,
2013-02-04 20:04:00,43.6,34.5,30.04,SW,222,0.0,0.0,70,0.00,,,0.00,Wunderground v.1.15,2013-02-05 01:04:00,
2013-02-04 20:09:00,43.5,34.0,30.04,SW,222,0.0,0.0,69,0.00,,,0.00,Wunderground v.1.15,2013-02-05 01:09:00,
2013-02-04 20:14:00,43.6,33.4,30.04,SW,222,0.0,0.0,67,0.00,,,0.00,Wunderground v.1.15,2013-02-05 01:14:00,
2013-02-04 20:19:00,43.7,34.2,30.04,SW,222,0.0,0.0,69,0.00,,,0.00,Wunderground v.1.15,2013-02-05 01:19:00,
2013-02-04 20:24:00,43.6,34.1,30.04,SW,222,0.0,0.0,69,0.00,,,0.00,Wunderground v.1.15,2013-02-05 01:24:00,
2013-02-04 20:29:00,43.4,33.9,30.04,SW,222,0.0,0.0,69,0.00,,,0.00,Wunderground v.1.15,2013-02-05 01:29:00,
2013-02-04 20:35:00,43.1,34.0,30.04,SW,222,0.0,0.0,70,0.00,,,0.00,Wunderground v.1.15,2013-02-05 01:35:00,
2013-02-04 20:40:00,42.6,33.5,30.04,SW,222,0.0,0.0,70,0.00,,,0.00,Wunderground v.1.15,2013-02-05 01:40:00,
2013-02-04 20:45:00,42.1,33.4,30.05,SW,222,0.0,0.0,71,0.00,,,0.00,Wunderground v.1.15,2013-02-05 01:45:00,
2013-02-04 20:50:00,41.7,33.3,30.04,SW,222,0.0,0.0,72,0.00,,,0.00,Wunderground v.1.15,2013-02-05 01:50:00,
2013-02-04 20:55:00,41.4,33.0,30.05,SW,222,0.0,0.0,72,0.00,,,0.00,Wunderground v.1.15,2013-02-05 01:55:00,
2013-02-04 21:00:00,41.2,33.2,30.05,SW,222,0.0,0.0,73,0.00,,,0.00,Wunderground v.1.15,2013-02-05 02:00:00,
2013-02-04 21:05:00,40.9,33.2,30.05,SW,222,0.0,0.0,74,0.00,,,0.00,Wunderground v.1.15,2013-02-05 02:05:00,
2013-02-04 21:10:00,40.3,33.0,30.05,SW,222,0.0,0.0,75,0.00,,,0.00,Wunderground v.1.15,2013-02-05 02:10:00,
2013-02-04 21:15:00,39.9,32.9,30.05,SW,222,0.0,0.0,76,0.00,,,0.00,Wunderground v.1.15,2013-02-05 02:15:00,
2013-02-04 21:20:00,39.5,32.9,30.05,SW,222,0.0,0.0,77,0.00,,,0.00,Wunderground v.1.15,2013-02-05 02:20:00,
2013-02-04 21:25:00,39.3,33.3,30.04,SW,222,0.0,0.0,79,0.00,,,0.00,Wunderground v.1.15,2013-02-05 02:25:00,
2013-02-04 21:30:00,39.2,33.2,30.05,SW,222,0.0,0.0,79,0.00,,,0.00,Wunderground v.1.15,2013-02-05 02:30:00,
2013-02-04 21:35:00,38.9,32.9,30.05,SW,222,0.0,0.0,79,0.00,,,0.00,Wunderground v.1.15,2013-02-05 02:35:00,
2013-02-04 21:40:00,38.8,33.2,30.04,SW,222,0.0,0.0,80,0.00,,,0.00,Wunderground v.1.15,2013-02-05 02:40:00,
2013-02-04 21:45:00,38.8,32.8,30.04,SW,222,0.0,0.0,79,0.00,,,0.00,Wunderground v.1.15,2013-02-05 02:45:00,
2013-02-04 21:50:00,39.0,33.4,30.04,SW,222,0.0,0.0,80,0.00,,,0.00,Wunderground v.1.15,2013-02-05 02:50:00,
2013-02-04 21:55:00,39.0,33.4,30.04,SW,222,0.0,0.0,80,0.00,,,0.00,Wunderground v.1.15,2013-02-05 02:55:00,
2013-02-04 22:00:00,38.7,33.1,30.04,SW,222,0.0,0.0,80,0.00,,,0.00,Wunderground v.1.15,2013-02-05 03:00:00,
2013-02-04 22:05:00,38.6,33.0,30.04,SW,222,0.0,0.0,80,0.00,,,0.00,Wunderground v.1.15,2013-02-05 03:05:00,
2013-02-04 22:10:00,38.7,33.1,30.04,SW,222,0.0,0.0,80,0.00,,,0.00,Wunderground v.1.15,2013-02-05 03:10:00,
2013-02-04 22:15:00,38.9,33.3,30.04,SW,222,0.0,0.0,80,0.00,,,0.00,Wunderground v.1.15,2013-02-05 03:15:00,
2013-02-04 22:20:00,39.3,33.0,30.03,SW,222,0.0,0.0,78,0.00,,,0.00,Wunderground v.1.15,2013-02-05 03:20:00,
2013-02-04 22:25:00,40.0,33.0,30.03,SW,222,0.0,0.0,76,0.00,,,0.00,Wunderground v.1.15,2013-02-05 03:25:00,
2013-02-04 22:30:00,40.6,33.0,30.03,SW,222,0.0,0.0,74,0.00,,,0.00,Wunderground v.1.15,2013-02-05 03:30:00,
2013-02-04 22:35:00,41.1,33.4,30.03,SW,222,0.0,0.0,74,0.00,,,0.00,Wunderground v.1.15,2013-02-05 03:35:00,
2013-02-04 22:40:00,41.3,34.0,30.03,SW,222,0.0,0.0,75,0.00,,,0.00,Wunderground v.1.15,2013-02-05 03:40:00,
2013-02-04 22:45:00,41.3,34.3,30.03,SW,222,0.0,0.0,76,0.00,,,0.00,Wunderground v.1.15,2013-02-05 03:45:00,
2013-02-04 22:50:00,41.0,34.0,30.03,SW,222,0.0,0.0,76,0.00,,,0.00,Wunderground v.1.15,2013-02-05 03:50:00,
2013-02-04 22:55:00,40.8,34.1,30.03,SW,222,0.0,0.0,77,0.00,,,0.00,Wunderground v.1.15,2013-02-05 03:55:00,
2013-02-04 23:00:00,40.6,34.3,30.03,SW,222,0.0,0.0,78,0.00,,,0.00,Wunderground v.1.15,2013-02-05 04:00:00,
2013-02-04 23:05:00,40.2,33.9,30.03,SW,222,0.0,0.0,78,0.00,,,0.00,Wunderground v.1.15,2013-02-05 04:05:00,
2013-02-04 23:10:00,39.9,33.9,30.03,SW,222,0.0,0.0,79,0.00,,,0.00,Wunderground v.1.15,2013-02-05 04:10:00,
2013-02-04 23:15:00,39.7,33.7,30.03,SW,222,0.0,0.0,79,0.00,,,0.00,Wunderground v.1.15,2013-02-05 04:15:00,
2013-02-04 23:20:00,39.7,33.4,30.02,SW,222,0.0,0.0,78,0.00,,,0.00,Wunderground v.1.15,2013-02-05 04:20:00,
2013-02-04 23:25:00,39.8,33.8,30.02,SW,222,0.0,0.0,79,0.00,,,0.00,Wunderground v.1.15,2013-02-05 04:25:00,
2013-02-04 23:30:00,39.8,33.8,30.02,SW,222,0.0,0.0,79,0.00,,,0.00,Wunderground v.1.15,2013-02-05 04:30:00,
2013-02-04 23:35:00,39.7,33.7,30.02,SW,222,0.0,0.0,79,0.00,,,0.00,Wunderground v.1.15,2013-02-05 04:35:00,
2013-02-04 23:40:00,39.6,33.9,30.02,SW,222,0.0,0.0,80,0.00,,,0.00,Wunderground v.1.15,2013-02-05 04:40:00,
2013-02-04 23:45:00,39.3,33.6,30.02,SW,222,0.0,0.0,80,0.00,,,0.00,Wunderground v.1.15,2013-02-05 04:45:00,
2013-02-04 23:48:00,40.5,34.2,30.18,East,86,2.0,5.0,78,0.00,,,0.00,Wunderground v.1.15,2013-02-05 04:48:00,
2013-02-04 23:49:00,40.7,34.0,30.18,East,86,3.0,5.0,77,0.00,,,0.00,Wunderground v.1.15,2013-02-05 04:49:00,
2013-02-04 23:50:00,39.0,33.4,30.02,SW,222,0.0,0.0,80,0.00,,,0.00,Wunderground v.1.15,2013-02-05 04:50:00,
2013-02-04 23:51:00,41.1,33.8,30.18,East,82,3.0,4.0,75,0.00,,,0.00,Wunderground v.1.15,2013-02-05 04:51:00,
2013-02-04 23:52:00,41.3,34.0,30.18,East,90,0.0,4.0,75,0.00,,,0.00,Wunderground v.1.15,2013-02-05 04:52:00,
2013-02-04 23:53:00,41.4,33.7,30.18,East,82,3.0,4.0,74,0.00,,,0.00,Wunderground v.1.15,2013-02-05 04:53:00,
2013-02-04 23:54:00,41.6,33.6,30.18,East,81,3.0,4.0,73,0.00,,,0.00,Wunderground v.1.15,2013-02-05 04:54:00,
2013-02-04 23:55:00,39.0,33.0,30.02,SW,222,0.0,0.0,79,0.00,,,0.00,Wunderground v.1.15,2013-02-05 04:55:00,
2013-02-04 23:56:00,41.9,33.5,30.18,East,81,0.0,4.0,72,0.00,,,0.00,Wunderground v.1.15,2013-02-05 04:56:00,
2013-02-04 23:57:00,42.0,33.6,30.18,East,82,2.0,4.0,72,0.00,,,0.00,Wunderground v.1.15,2013-02-05 04:57:00,
2013-02-04 23:58:00,42.1,33.4,30.18,East,82,2.0,4.0,71,0.00,,,0.00,Wunderground v.1.15,2013-02-05 04:58:00,